Time;durP1;ratioP1;P1;durP2;ratioP2;P2;SDS_P1;SDS_P2;PMS_P1;PMS_P2;Temp;Humidity;BMP_temperature;BMP_pressure;BME280_temperature;BME280_humidity;BME280_pressure;Samples;Min_cycle;Max_cycle;Signal;HPM_P1;HPM_P2
2022/06/04 00:01:30;;;;;;;1.23;1.23;;;;;;;;;;5033700;28;20222;-84
2022/06/04 00:03:58;;;;;;;1.70;1.60;;;;;;;;;;5033540;28;20218;-84
2022/06/04 00:06:25;;;;;;;1.13;1.13;;;;;;;;;;5034564;28;20229;-84
2022/06/04 00:08:54;;;;;;;1.10;1.10;;;;;;;;;;5034209;28;20237;-84
2022/06/04 00:16:52;;;;;;;1.33;1.05;;;;;;;;;;5034057;28;20205;-84
2022/06/04 00:19:19;;;;;;;3.63;1.33;;;;;;;;;;5033625;28;20229;-84
2022/06/04 00:21:48;;;;;;;1.40;1.40;;;;;;;;;;5033309;28;20226;-84
2022/06/04 00:24:17;;;;;;;1.50;1.40;;;;;;;;;;5033803;28;20218;-84
2022/06/04 00:26:45;;;;;;;2.85;1.80;;;;;;;;;;5034620;28;20256;-85
2022/06/04 00:29:12;;;;;;;1.05;1.05;;;;;;;;;;5022725;28;20714;-85
2022/06/04 00:31:40;;;;;;;1.55;1.48;;;;;;;;;;5013929;28;20227;-83
2022/06/04 00:34:09;;;;;;;1.38;1.27;;;;;;;;;;5014665;28;20261;-84
2022/06/04 00:36:37;;;;;;;1.35;1.35;;;;;;;;;;5014337;28;20290;-84
2022/06/04 00:39:05;;;;;;;1.48;1.40;;;;;;;;;;5014395;28;20202;-85
2022/06/04 00:41:48;;;;;;;1.20;1.20;;;;;;;;;;5013646;28;20234;-85
2022/06/04 00:45:12;;;;;;;1.48;1.33;;;;;;;;;;5014222;28;20319;-84
2022/06/04 00:47:41;;;;;;;1.42;1.42;;;;;;;;;;4970798;28;20644;-84
2022/06/04 00:50:09;;;;;;;1.80;1.70;;;;;;;;;;5015233;28;20207;-84
2022/06/04 00:52:38;;;;;;;1.48;1.48;;;;;;;;;;5014443;28;20223;-84
2022/06/04 00:55:07;;;;;;;1.75;1.30;;;;;;;;;;5014882;28;20210;-85
2022/06/04 00:58:19;;;;;;;1.48;1.38;;;;;;;;;;5014610;28;20203;-84
2022/06/04 01:00:53;;;;;;;1.52;1.42;;;;;;;;;;5016996;28;20237;-84
2022/06/04 01:03:47;;;;;;;1.30;1.23;;;;;;;;;;5017626;28;20226;-83
2022/06/04 01:06:40;;;;;;;1.30;1.30;;;;;;;;;;5018715;28;20290;-84
2022/06/04 01:09:23;;;;;;;1.60;1.50;;;;;;;;;;5017801;28;20640;-84
2022/06/04 01:12:12;;;;;;;1.73;1.60;;;;;;;;;;5017790;28;20798;-83
2022/06/04 01:15:09;;;;;;;1.38;1.30;;;;;;;;;;5018518;28;20215;-84
2022/06/04 01:18:02;;;;;;;1.63;1.55;;;;;;;;;;5018222;28;20227;-85
2022/06/04 01:20:38;;;;;;;1.33;1.33;;;;;;;;;;5017905;28;20734;-84
2022/06/04 01:23:33;;;;;;;1.40;1.40;;;;;;;;;;5017719;28;20317;-85
2022/06/04 01:26:22;;;;;;;1.50;1.40;;;;;;;;;;5018504;28;20238;-84
2022/06/04 01:28:53;;;;;;;1.67;1.58;;;;;;;;;;5026508;28;20210;-84
2022/06/04 01:31:26;;;;;;;1.50;1.45;;;;;;;;;;5037986;28;20232;-84
2022/06/04 01:34:00;;;;;;;1.13;1.13;;;;;;;;;;5037101;28;20258;-85
2022/06/04 01:36:32;;;;;;;1.20;1.20;;;;;;;;;;5037420;28;20206;-83
2022/06/04 01:39:03;;;;;;;1.20;1.20;;;;;;;;;;5037296;28;20289;-84
2022/06/04 01:41:34;;;;;;;1.30;1.20;;;;;;;;;;5037273;28;20198;-85
2022/06/04 01:44:07;;;;;;;1.20;1.20;;;;;;;;;;5036490;28;20218;-84
2022/06/04 01:46:38;;;;;;;1.30;1.30;;;;;;;;;;5052166;22;20266;-81
2022/06/04 01:49:11;;;;;;;1.45;1.35;;;;;;;;;;5015544;28;20245;-80
2022/06/04 01:51:39;;;;;;;1.55;1.45;;;;;;;;;;5016763;28;20282;-80
2022/06/04 01:54:13;;;;;;;1.50;1.40;;;;;;;;;;5017317;28;20266;-80
2022/06/04 01:56:46;;;;;;;1.50;1.50;;;;;;;;;;5016569;28;20314;-80
2022/06/04 01:59:19;;;;;;;1.70;1.60;;;;;;;;;;5017232;28;20274;-80
2022/06/04 02:01:47;;;;;;;1.60;1.50;;;;;;;;;;5015153;28;20295;-80
2022/06/04 02:04:17;;;;;;;1.70;1.60;;;;;;;;;;5016566;28;20321;-80
2022/06/04 02:07:29;;;;;;;1.63;1.52;;;;;;;;;;5016046;28;20227;-80
2022/06/04 02:09:37;;;;;;;4.25;1.67;;;;;;;;;;5015706;28;20203;-79
2022/06/04 02:12:07;;;;;;;1.67;1.58;;;;;;;;;;5014906;28;20261;-80
2022/06/04 02:14:34;;;;;;;2.08;1.98;;;;;;;;;;5016589;28;20286;-79
2022/06/04 02:17:07;;;;;;;1.38;1.30;;;;;;;;;;5016668;28;20314;-80
2022/06/04 02:19:35;;;;;;;1.23;1.20;;;;;;;;;;5016021;28;20742;-80
2022/06/04 02:22:03;;;;;;;1.40;1.38;;;;;;;;;;5015597;28;20295;-80
2022/06/04 02:24:30;;;;;;;1.50;1.40;;;;;;;;;;5016010;28;20229;-80
2022/06/04 02:26:58;;;;;;;1.60;1.50;;;;;;;;;;5015603;28;20313;-80
2022/06/04 02:29:27;;;;;;;1.83;1.48;;;;;;;;;;5016171;28;20298;-80
2022/06/04 02:32:02;;;;;;;1.58;1.48;;;;;;;;;;5015153;28;20234;-80
2022/06/04 02:34:36;;;;;;;1.80;1.70;;;;;;;;;;5015368;28;20241;-80
2022/06/04 02:37:10;;;;;;;1.70;1.60;;;;;;;;;;5015345;28;20302;-79
2022/06/04 02:39:41;;;;;;;1.63;1.52;;;;;;;;;;5015104;28;20738;-80
2022/06/04 02:42:14;;;;;;;1.60;1.50;;;;;;;;;;5015099;28;20239;-81
2022/06/04 02:44:49;;;;;;;1.30;1.30;;;;;;;;;;5015434;28;20254;-80
2022/06/04 02:47:21;;;;;;;1.40;1.40;;;;;;;;;;5013239;28;20668;-80
2022/06/04 02:49:54;;;;;;;1.65;1.55;;;;;;;;;;5015498;28;20297;-80
2022/06/04 02:52:23;;;;;;;1.80;1.70;;;;;;;;;;5014387;28;20298;-80
2022/06/04 02:54:55;;;;;;;1.73;1.63;;;;;;;;;;5014569;28;20722;-79
2022/06/04 02:57:24;;;;;;;1.60;1.50;;;;;;;;;;5014839;28;20302;-79
2022/06/04 02:59:55;;;;;;;3.20;1.55;;;;;;;;;;5014133;28;20213;-80
2022/06/04 03:02:22;;;;;;;1.90;1.80;;;;;;;;;;5014202;28;20290;-80
2022/06/04 03:04:52;;;;;;;1.60;1.50;;;;;;;;;;5014458;28;20318;-80
2022/06/04 03:07:22;;;;;;;2.63;1.98;;;;;;;;;;5014372;28;20707;-80
2022/06/04 03:09:52;;;;;;;2.00;1.90;;;;;;;;;;5014672;28;20203;-79
2022/06/04 03:12:20;;;;;;;1.90;1.80;;;;;;;;;;5011445;28;20286;-79
2022/06/04 03:14:47;;;;;;;2.13;2.03;;;;;;;;;;5014038;28;20234;-79
2022/06/04 03:17:16;;;;;;;1.75;1.65;;;;;;;;;;5013793;28;20219;-80
2022/06/04 03:19:44;;;;;;;1.98;1.88;;;;;;;;;;5013681;28;20294;-79
2022/06/04 03:22:11;;;;;;;1.90;1.80;;;;;;;;;;5011828;28;20294;-80
2022/06/04 03:24:39;;;;;;;2.85;1.60;;;;;;;;;;5013882;28;20330;-80
2022/06/04 03:27:06;;;;;;;3.03;1.90;;;;;;;;;;5013249;28;20309;-79
2022/06/04 03:29:34;;;;;;;2.10;1.95;;;;;;;;;;5013290;28;20290;-79
2022/06/04 03:32:01;;;;;;;1.73;1.63;;;;;;;;;;5012791;28;20294;-79
2022/06/04 03:34:30;;;;;;;1.85;1.70;;;;;;;;;;5013121;28;20290;-79
2022/06/04 03:36:58;;;;;;;1.45;1.35;;;;;;;;;;5013143;28;20306;-79
2022/06/04 03:39:25;;;;;;;2.00;1.90;;;;;;;;;;5013070;28;20204;-80
2022/06/04 03:41:53;;;;;;;1.67;1.58;;;;;;;;;;5012568;28;20290;-79
2022/06/04 03:44:20;;;;;;;1.60;1.50;;;;;;;;;;5013165;28;20321;-79
2022/06/04 03:46:48;;;;;;;1.75;1.65;;;;;;;;;;5012617;28;20802;-79
2022/06/04 03:49:15;;;;;;;1.83;1.73;;;;;;;;;;5011354;28;20294;-80
2022/06/04 03:51:44;;;;;;;1.98;1.83;;;;;;;;;;5012186;28;20289;-79
2022/06/04 03:54:12;;;;;;;1.42;1.40;;;;;;;;;;5013019;28;20651;-79
2022/06/04 03:56:39;;;;;;;1.80;1.70;;;;;;;;;;5012525;28;20306;-79
2022/06/04 03:59:07;;;;;;;2.00;1.90;;;;;;;;;;5012488;28;20213;-80
2022/06/04 04:01:35;;;;;;;1.67;1.58;;;;;;;;;;5011786;28;20302;-79
2022/06/04 04:04:03;;;;;;;2.33;2.22;;;;;;;;;;5012158;28;20707;-79
2022/06/04 04:06:33;;;;;;;2.35;2.05;;;;;;;;;;5012733;28;20231;-79
2022/06/04 04:09:04;;;;;;;2.50;2.30;;;;;;;;;;5012965;28;20290;-79
2022/06/04 04:11:32;;;;;;;2.15;2.05;;;;;;;;;;5014322;28;20559;-81
2022/06/04 04:13:59;;;;;;;1.90;1.80;;;;;;;;;;5016477;28;20588;-79
2022/06/04 04:16:27;;;;;;;2.35;2.17;;;;;;;;;;5016271;28;20341;-79
2022/06/04 04:18:54;;;;;;;2.80;2.60;;;;;;;;;;5016283;28;20206;-80
2022/06/04 04:21:23;;;;;;;2.90;2.70;;;;;;;;;;5014867;28;20266;-80
2022/06/04 04:23:51;;;;;;;2.40;2.20;;;;;;;;;;5014502;28;20619;-80
2022/06/04 04:26:20;;;;;;;2.00;1.90;;;;;;;;;;5014582;28;20570;-80
2022/06/04 04:28:48;;;;;;;2.03;1.92;;;;;;;;;;5014452;28;20657;-80
2022/06/04 04:31:19;;;;;;;2.22;1.70;;;;;;;;;;5014542;28;20203;-80
2022/06/04 04:33:46;;;;;;;2.30;2.20;;;;;;;;;;5013828;28;20294;-80
2022/06/04 04:36:14;;;;;;;2.13;1.92;;;;;;;;;;5014228;28;20314;-80
2022/06/04 04:38:41;;;;;;;2.00;1.90;;;;;;;;;;5014055;28;20203;-80
2022/06/04 04:41:13;;;;;;;2.50;2.30;;;;;;;;;;5014536;28;20675;-80
2022/06/04 04:43:42;;;;;;;2.25;2.05;;;;;;;;;;5014181;28;20214;-80
2022/06/04 04:46:13;;;;;;;2.60;2.50;;;;;;;;;;5014523;28;20745;-80
2022/06/04 04:48:41;;;;;;;2.55;2.35;;;;;;;;;;5012566;28;20207;-80
2022/06/04 04:51:13;;;;;;;2.65;1.77;;;;;;;;;;5014209;28;20582;-80
2022/06/04 04:53:40;;;;;;;3.33;3.13;;;;;;;;;;5014184;28;20214;-80
2022/06/04 04:56:08;;;;;;;1.83;1.73;;;;;;;;;;5014312;28;20326;-80
2022/06/04 04:58:36;;;;;;;4.25;2.95;;;;;;;;;;5013883;28;20293;-80
2022/06/04 05:01:05;;;;;;;2.85;2.65;;;;;;;;;;5013093;28;20754;-80
2022/06/04 05:03:32;;;;;;;2.30;2.10;;;;;;;;;;5013233;28;20294;-80
2022/06/04 05:06:01;;;;;;;3.00;2.10;;;;;;;;;;5013517;28;20227;-80
2022/06/04 05:08:28;;;;;;;2.25;2.05;;;;;;;;;;5013667;28;20285;-80
2022/06/04 05:10:56;;;;;;;2.38;2.17;;;;;;;;;;5013698;28;20290;-80
2022/06/04 05:13:24;;;;;;;3.25;3.05;;;;;;;;;;5013281;28;20293;-80
2022/06/04 05:15:51;;;;;;;1.90;1.80;;;;;;;;;;5013233;28;20281;-80
2022/06/04 05:18:20;;;;;;;2.45;1.83;;;;;;;;;;5013950;28;20294;-79
2022/06/04 05:20:47;;;;;;;2.10;2.00;;;;;;;;;;5019621;28;20243;-80
2022/06/04 05:23:15;;;;;;;2.22;2.08;;;;;;;;;;5017593;28;20267;-80
2022/06/04 05:25:44;;;;;;;2.08;1.98;;;;;;;;;;5014775;28;20229;-79
2022/06/04 05:28:11;;;;;;;2.60;2.03;;;;;;;;;;5014286;28;20580;-80
2022/06/04 05:30:39;;;;;;;2.10;2.00;;;;;;;;;;5014324;28;20274;-80
2022/06/04 05:33:08;;;;;;;2.30;2.20;;;;;;;;;;5013538;28;20294;-80
2022/06/04 05:35:37;;;;;;;2.45;2.25;;;;;;;;;;5014261;28;20734;-80
2022/06/04 05:38:05;;;;;;;2.20;2.10;;;;;;;;;;5013972;28;20203;-80
2022/06/04 05:40:33;;;;;;;2.25;2.15;;;;;;;;;;5013507;28;20231;-80
2022/06/04 05:43:00;;;;;;;1.88;1.77;;;;;;;;;;5015499;28;20238;-84
2022/06/04 05:45:28;;;;;;;2.70;2.50;;;;;;;;;;5017811;28;20291;-83
2022/06/04 05:47:55;;;;;;;1.80;1.70;;;;;;;;;;5018145;28;20318;-82
2022/06/04 05:50:23;;;;;;;3.05;2.10;;;;;;;;;;5020572;28;20257;-84
2022/06/04 05:52:52;;;;;;;2.20;2.10;;;;;;;;;;5019119;28;20293;-84
2022/06/04 05:55:19;;;;;;;1.90;1.80;;;;;;;;;;5019585;28;20278;-84
2022/06/04 05:57:47;;;;;;;1.90;1.80;;;;;;;;;;5020029;28;20242;-84
2022/06/04 06:00:16;;;;;;;1.70;1.60;;;;;;;;;;4999568;28;20250;-83
2022/06/04 06:02:43;;;;;;;2.03;1.92;;;;;;;;;;4997755;28;20231;-84
2022/06/04 06:05:11;;;;;;;1.90;1.80;;;;;;;;;;4998875;28;20302;-84
2022/06/04 06:07:38;;;;;;;2.05;1.88;;;;;;;;;;4999195;28;20247;-84
2022/06/04 06:10:09;;;;;;;1.95;1.85;;;;;;;;;;4999636;28;20740;-82
2022/06/04 06:12:36;;;;;;;2.70;2.50;;;;;;;;;;4999065;28;20210;-83
2022/06/04 06:15:05;;;;;;;1.80;1.70;;;;;;;;;;4998835;28;20199;-84
2022/06/04 06:17:33;;;;;;;2.10;1.90;;;;;;;;;;4997742;28;20704;-84
2022/06/04 06:20:00;;;;;;;2.40;2.30;;;;;;;;;;4997787;28;20295;-83
2022/06/04 06:22:28;;;;;;;1.95;1.85;;;;;;;;;;4998046;28;20239;-83
2022/06/04 06:24:56;;;;;;;1.98;1.88;;;;;;;;;;4998257;28;20239;-84
2022/06/04 06:27:26;;;;;;;2.30;1.83;;;;;;;;;;4999106;28;20254;-84
2022/06/04 06:29:54;;;;;;;2.00;1.80;;;;;;;;;;5014405;28;20294;-84
2022/06/04 06:32:21;;;;;;;2.50;2.30;;;;;;;;;;5016758;28;20285;-82
2022/06/04 06:34:49;;;;;;;2.22;2.13;;;;;;;;;;5016901;28;20580;-83
2022/06/04 06:37:16;;;;;;;1.92;1.83;;;;;;;;;;5015663;28;20314;-84
2022/06/04 06:39:44;;;;;;;1.90;1.80;;;;;;;;;;5015597;28;20290;-84
2022/06/04 06:42:12;;;;;;;1.88;1.77;;;;;;;;;;5015571;28;20278;-85
2022/06/04 06:44:41;;;;;;;2.17;2.08;;;;;;;;;;5015739;28;20227;-84
2022/06/04 06:47:08;;;;;;;1.80;1.70;;;;;;;;;;5013303;28;20230;-84
2022/06/04 06:49:36;;;;;;;2.47;2.28;;;;;;;;;;5016699;28;20282;-84
2022/06/04 06:52:06;;;;;;;1.98;1.88;;;;;;;;;;5015629;28;20290;-84
2022/06/04 06:54:37;;;;;;;2.63;2.42;;;;;;;;;;5016050;28;20718;-84
2022/06/04 06:57:09;;;;;;;1.77;1.67;;;;;;;;;;5014423;28;20227;-84
2022/06/04 06:59:37;;;;;;;2.05;1.95;;;;;;;;;;5014252;28;20245;-84
2022/06/04 07:02:06;;;;;;;2.63;1.95;;;;;;;;;;5013834;28;20206;-85
2022/06/04 07:04:34;;;;;;;2.30;2.20;;;;;;;;;;5015006;28;20668;-84
2022/06/04 07:07:03;;;;;;;2.15;1.95;;;;;;;;;;5016202;28;20231;-85
2022/06/04 07:09:33;;;;;;;3.00;2.28;;;;;;;;;;5015525;28;20286;-85
2022/06/04 07:12:02;;;;;;;2.25;2.15;;;;;;;;;;5014522;28;20664;-84
2022/06/04 07:14:30;;;;;;;2.13;2.03;;;;;;;;;;5013906;28;20199;-85
2022/06/04 07:17:03;;;;;;;2.60;2.40;;;;;;;;;;5014888;28;20250;-86
2022/06/04 07:19:56;;;;;;;3.22;2.50;;;;;;;;;;5015102;28;20202;-84
2022/06/04 07:23:39;;;;;;;2.67;2.58;;;;;;;;;;5014071;28;20211;-84
2022/06/04 07:26:11;;;;;;;2.42;1.75;;;;;;;;;;5013831;28;20276;-85
2022/06/04 07:28:59;;;;;;;2.40;2.17;;;;;;;;;;5014200;28;20683;-85
2022/06/04 07:31:41;;;;;;;2.08;1.98;;;;;;;;;;5014467;28;20284;-85
2022/06/04 07:34:13;;;;;;;2.45;2.25;;;;;;;;;;5014090;28;20226;-85
2022/06/04 07:36:47;;;;;;;3.22;2.10;;;;;;;;;;5014038;28;20225;-85
2022/06/04 07:39:17;;;;;;;2.13;2.03;;;;;;;;;;5013689;28;20249;-84
2022/06/04 07:41:47;;;;;;;4.15;2.20;;;;;;;;;;5012898;28;20203;-85
2022/06/04 07:44:17;;;;;;;2.30;2.20;;;;;;;;;;5013178;28;20242;-84
2022/06/04 07:46:47;;;;;;;2.30;2.10;;;;;;;;;;5041820;22;20620;-81
2022/06/04 07:49:15;;;;;;;1.90;1.80;;;;;;;;;;5032519;28;20778;-82
2022/06/04 07:51:45;;;;;;;1.50;1.45;;;;;;;;;;5033495;28;20289;-81
2022/06/04 07:54:14;;;;;;;2.08;1.98;;;;;;;;;;5033790;28;20199;-83
2022/06/04 07:56:42;;;;;;;1.80;1.70;;;;;;;;;;5028747;28;20270;-82
2022/06/04 07:59:13;;;;;;;2.67;2.47;;;;;;;;;;5015951;28;20211;-85
2022/06/04 08:01:40;;;;;;;2.10;2.00;;;;;;;;;;5013963;28;20206;-80
2022/06/04 08:04:09;;;;;;;2.65;2.10;;;;;;;;;;5017164;28;20235;-83
2022/06/04 08:06:37;;;;;;;2.88;2.38;;;;;;;;;;5015436;28;20722;-80
2022/06/04 08:09:06;;;;;;;2.38;2.17;;;;;;;;;;5012761;28;20234;-79
2022/06/04 08:11:36;;;;;;;2.35;2.15;;;;;;;;;;4993975;28;20294;-80
2022/06/04 08:14:12;;;;;;;2.10;2.00;;;;;;;;;;4994163;28;20223;-79
2022/06/04 08:16:41;;;;;;;2.53;2.33;;;;;;;;;;4994229;28;20261;-81
2022/06/04 08:19:10;;;;;;;2.22;2.03;;;;;;;;;;4995113;28;20210;-79
2022/06/04 08:21:39;;;;;;;2.80;2.60;;;;;;;;;;4994318;28;20289;-79
2022/06/04 08:24:11;;;;;;;2.60;2.40;;;;;;;;;;4994295;28;20206;-78
2022/06/04 08:26:41;;;;;;;2.03;1.92;;;;;;;;;;4993792;28;20319;-79
2022/06/04 08:29:08;;;;;;;2.55;2.35;;;;;;;;;;5012072;28;20277;-79
2022/06/04 08:31:36;;;;;;;1.90;1.80;;;;;;;;;;5022228;28;20213;-82
2022/06/04 08:34:05;;;;;;;2.45;2.20;;;;;;;;;;5014599;28;20286;-79
2022/06/04 08:36:34;;;;;;;3.28;2.97;;;;;;;;;;5014021;28;20583;-78
2022/06/04 08:39:02;;;;;;;2.38;2.28;;;;;;;;;;5011243;28;20206;-79
2022/06/04 08:41:58;;;;;;;5.03;2.25;;;;;;;;;;5013063;28;20765;-79
2022/06/04 08:44:30;;;;;;;3.15;1.92;;;;;;;;;;5013247;28;20259;-79
2022/06/04 08:47:02;;;;;;;2.53;1.88;;;;;;;;;;5013000;28;20327;-79
2022/06/04 08:49:34;;;;;;;2.25;2.15;;;;;;;;;;5013251;28;20207;-79
2022/06/04 08:52:10;;;;;;;3.42;2.03;;;;;;;;;;5012340;28;20253;-79
2022/06/04 08:57:35;;;;;;;2.40;2.30;;;;;;;;;;5013596;28;20701;-80
2022/06/04 09:00:11;;;;;;;3.50;2.33;;;;;;;;;;5012798;28;20294;-80
2022/06/04 09:03:00;;;;;;;2.08;1.98;;;;;;;;;;5012922;28;20293;-80
2022/06/04 09:05:46;;;;;;;2.63;2.20;;;;;;;;;;5013961;28;20234;-80
2022/06/04 09:08:18;;;;;;;4.80;2.45;;;;;;;;;;5013437;28;20321;-80
2022/06/04 09:10:51;;;;;;;2.80;2.60;;;;;;;;;;5013538;28;20286;-78
2022/06/04 09:13:25;;;;;;;2.05;1.92;;;;;;;;;;5013117;28;20289;-79
2022/06/04 09:15:55;;;;;;;1.88;1.77;;;;;;;;;;5013715;28;20290;-80
2022/06/04 09:18:27;;;;;;;2.20;1.98;;;;;;;;;;5013475;28;20219;-79
2022/06/04 09:20:59;;;;;;;2.22;2.03;;;;;;;;;;5015508;28;20206;-79
2022/06/04 09:23:42;;;;;;;2.10;2.00;;;;;;;;;;5016712;28;20211;-80
2022/06/04 09:26:24;;;;;;;2.42;2.22;;;;;;;;;;5017030;28;20294;-80
2022/06/04 09:29:06;;;;;;;2.30;2.20;;;;;;;;;;5016749;28;20321;-80
2022/06/04 09:31:44;;;;;;;1.95;1.85;;;;;;;;;;5016818;28;20289;-80
2022/06/04 09:34:16;;;;;;;2.10;2.00;;;;;;;;;;5018380;28;20257;-80
2022/06/04 09:36:46;;;;;;;2.42;2.22;;;;;;;;;;5016825;28;20302;-80
2022/06/04 09:39:25;;;;;;;2.47;2.38;;;;;;;;;;5016539;28;20238;-80
2022/06/04 09:41:56;;;;;;;2.20;2.10;;;;;;;;;;5017063;28;20285;-80
2022/06/04 09:44:27;;;;;;;2.20;2.10;;;;;;;;;;5017069;28;20210;-79
2022/06/04 09:46:59;;;;;;;2.40;2.20;;;;;;;;;;5016465;28;20237;-80
2022/06/04 09:49:35;;;;;;;2.20;2.10;;;;;;;;;;5016548;28;20297;-80
2022/06/04 09:52:18;;;;;;;1.80;1.70;;;;;;;;;;5015928;28;20294;-80
2022/06/04 09:54:51;;;;;;;2.13;2.03;;;;;;;;;;5016776;28;20213;-80
2022/06/04 09:57:28;;;;;;;2.08;1.98;;;;;;;;;;5017442;28;20227;-80
2022/06/04 09:59:59;;;;;;;2.08;1.98;;;;;;;;;;5016033;28;20306;-79
2022/06/04 10:02:28;;;;;;;2.05;1.95;;;;;;;;;;5016674;28;20293;-78
2022/06/04 10:05:06;;;;;;;2.03;1.83;;;;;;;;;;5016957;28;20234;-79
2022/06/04 10:07:35;;;;;;;2.70;2.50;;;;;;;;;;5017001;28;20722;-79
2022/06/04 10:10:23;;;;;;;2.03;1.92;;;;;;;;;;5017163;28;20286;-80
2022/06/04 10:15:44;;;;;;;2.90;2.60;;;;;;;;;;5016374;28;20226;-80
2022/06/04 10:18:25;;;;;;;3.88;2.65;;;;;;;;;;5015986;28;20225;-79
2022/06/04 10:20:59;;;;;;;1.95;1.85;;;;;;;;;;5016829;28;20290;-80
2022/06/04 10:23:30;;;;;;;2.20;2.10;;;;;;;;;;5015597;28;20237;-80
2022/06/04 10:26:24;;;;;;;3.58;3.28;;;;;;;;;;5016914;28;20210;-81
2022/06/04 10:29:28;;;;;;;2.50;2.22;;;;;;;;;;5016378;28;20305;-80
2022/06/04 10:32:09;;;;;;;2.45;2.28;;;;;;;;;;5013269;28;20207;-80
2022/06/04 10:34:45;;;;;;;2.17;2.00;;;;;;;;;;5016748;28;20738;-80
2022/06/04 10:37:28;;;;;;;2.13;1.80;;;;;;;;;;5016886;28;20237;-81
2022/06/04 10:40:06;;;;;;;2.20;2.00;;;;;;;;;;5017019;28;20211;-79
2022/06/04 10:42:49;;;;;;;2.47;2.20;;;;;;;;;;5016147;28;20257;-80
2022/06/04 10:45:19;;;;;;;2.53;2.33;;;;;;;;;;5016229;28;20290;-80
2022/06/04 10:47:54;;;;;;;1.98;1.88;;;;;;;;;;5015831;28;20294;-81
2022/06/04 10:51:25;;;;;;;1.77;1.67;;;;;;;;;;5016518;28;20217;-80
2022/06/04 10:53:37;;;;;;;2.28;1.70;;;;;;;;;;5015357;28;20214;-80
2022/06/04 10:56:12;;;;;;;2.00;1.88;;;;;;;;;;5017402;28;20207;-80
2022/06/04 10:58:44;;;;;;;2.47;1.80;;;;;;;;;;5015455;28;20647;-80
2022/06/04 11:01:19;;;;;;;2.15;2.05;;;;;;;;;;5015355;28;20630;-80
2022/06/04 11:03:53;;;;;;;2.42;2.22;;;;;;;;;;5015843;28;20289;-80
2022/06/04 11:06:25;;;;;;;2.17;2.08;;;;;;;;;;5016972;28;20211;-81
2022/06/04 11:08:57;;;;;;;1.83;1.73;;;;;;;;;;5015434;28;20310;-81
2022/06/04 11:11:30;;;;;;;2.00;1.90;;;;;;;;;;5015621;28;20213;-81
2022/06/04 11:14:03;;;;;;;2.00;1.90;;;;;;;;;;5014780;28;20203;-81
2022/06/04 11:16:34;;;;;;;1.75;1.65;;;;;;;;;;5015375;28;20719;-81
2022/06/04 11:19:07;;;;;;;2.17;2.08;;;;;;;;;;5016706;28;20204;-82
2022/06/04 11:21:40;;;;;;;1.77;1.67;;;;;;;;;;5015056;28;20286;-82
2022/06/04 11:24:17;;;;;;;1.63;1.52;;;;;;;;;;5014983;28;20195;-82
2022/06/04 11:26:48;;;;;;;1.70;1.60;;;;;;;;;;5015785;28;20309;-81
2022/06/04 11:29:16;;;;;;;2.00;1.90;;;;;;;;;;5015427;28;20607;-80
2022/06/04 11:32:08;;;;;;;3.85;2.20;;;;;;;;;;5014135;28;20203;-81
2022/06/04 11:35:08;;;;;;;2.00;1.90;;;;;;;;;;5014693;28;20282;-80
2022/06/04 11:37:50;;;;;;;1.90;1.77;;;;;;;;;;5014513;28;20226;-81
2022/06/04 11:40:30;;;;;;;2.20;2.10;;;;;;;;;;5015229;28;20294;-80
2022/06/04 11:43:00;;;;;;;1.77;1.67;;;;;;;;;;5013625;28;20202;-82
2022/06/04 11:45:45;;;;;;;2.10;2.00;;;;;;;;;;5014794;28;20234;-81
2022/06/04 11:48:27;;;;;;;1.80;1.70;;;;;;;;;;5015112;28;20629;-81
2022/06/04 11:51:02;;;;;;;2.00;1.90;;;;;;;;;;5015278;28;20210;-82
2022/06/04 11:53:37;;;;;;;2.20;2.10;;;;;;;;;;5014856;28;20319;-81
2022/06/04 11:56:12;;;;;;;2.53;1.80;;;;;;;;;;5014873;28;20298;-82
2022/06/04 11:59:18;;;;;;;2.17;2.05;;;;;;;;;;5015480;28;20209;-81
2022/06/04 12:01:51;;;;;;;3.10;2.88;;;;;;;;;;5008209;28;20622;-82
2022/06/04 12:04:24;;;;;;;2.50;2.30;;;;;;;;;;5015115;28;20289;-81
2022/06/04 12:06:58;;;;;;;2.55;2.35;;;;;;;;;;5016122;28;20326;-82
2022/06/04 12:09:30;;;;;;;1.60;1.50;;;;;;;;;;5017147;28;20314;-82
2022/06/04 12:12:02;;;;;;;2.13;2.00;;;;;;;;;;5014021;28;20290;-81
2022/06/04 12:14:36;;;;;;;1.83;1.73;;;;;;;;;;5015244;28;20195;-82
2022/06/04 12:17:15;;;;;;;1.92;1.83;;;;;;;;;;5014775;28;20621;-81
2022/06/04 12:25:39;;;;;;;2.85;2.65;;;;;;;;;;5014640;28;20202;-82
2022/06/04 12:28:26;;;;;;;1.73;1.63;;;;;;;;;;5015065;28;20659;-81
2022/06/04 12:30:53;;;;;;;2.00;1.90;;;;;;;;;;5015486;28;20285;-82
2022/06/04 12:33:30;;;;;;;1.80;1.70;;;;;;;;;;5014989;28;20348;-80
2022/06/04 12:36:01;;;;;;;1.92;1.83;;;;;;;;;;5014555;28;20286;-81
2022/06/04 12:38:31;;;;;;;2.35;2.17;;;;;;;;;;5013167;28;20254;-82
2022/06/04 12:41:08;;;;;;;1.90;1.80;;;;;;;;;;5015150;28;20295;-82
2022/06/04 12:43:38;;;;;;;1.60;1.50;;;;;;;;;;5014960;28;20187;-82
2022/06/04 12:46:29;;;;;;;2.00;1.90;;;;;;;;;;5016010;28;20209;-82
2022/06/04 12:49:02;;;;;;;1.77;1.70;;;;;;;;;;5015817;28;20222;-82
2022/06/04 12:51:50;;;;;;;1.90;1.80;;;;;;;;;;5016431;28;20206;-81
2022/06/04 12:54:42;;;;;;;1.63;1.52;;;;;;;;;;5017225;28;20285;-81
2022/06/04 12:57:30;;;;;;;1.95;1.85;;;;;;;;;;5018972;28;20298;-82
2022/06/04 13:00:24;;;;;;;1.77;1.67;;;;;;;;;;5018069;28;20695;-81
2022/06/04 13:03:34;;;;;;;2.65;2.45;;;;;;;;;;5018973;28;20656;-81
2022/06/04 13:06:23;;;;;;;1.70;1.60;;;;;;;;;;5018934;28;20742;-82
2022/06/04 13:09:00;;;;;;;1.90;1.80;;;;;;;;;;5018851;28;20589;-81
2022/06/04 13:11:54;;;;;;;2.22;2.13;;;;;;;;;;5020052;28;20210;-81
2022/06/04 13:14:35;;;;;;;1.80;1.70;;;;;;;;;;5019558;28;20203;-82
2022/06/04 13:17:20;;;;;;;1.90;1.80;;;;;;;;;;5017615;28;20222;-82
2022/06/04 13:20:41;;;;;;;1.60;1.50;;;;;;;;;;5018140;28;20270;-81
2022/06/04 13:23:21;;;;;;;1.60;1.50;;;;;;;;;;4999318;28;20691;-80
2022/06/04 13:25:58;;;;;;;1.70;1.60;;;;;;;;;;5017796;28;20210;-81
2022/06/04 13:28:35;;;;;;;1.63;1.52;;;;;;;;;;5018093;28;20223;-81
2022/06/04 13:31:05;;;;;;;1.67;1.58;;;;;;;;;;5017987;28;20241;-81
2022/06/04 13:33:37;;;;;;;1.38;1.30;;;;;;;;;;5016907;28;20290;-82
2022/06/04 13:36:06;;;;;;;2.58;1.92;;;;;;;;;;5017523;28;20238;-81
2022/06/04 13:38:38;;;;;;;2.15;1.95;;;;;;;;;;5017140;28;20569;-82
2022/06/04 13:41:08;;;;;;;2.08;1.98;;;;;;;;;;5017711;28;20573;-82
2022/06/04 13:43:43;;;;;;;1.77;1.67;;;;;;;;;;5016666;28;20289;-82
2022/06/04 13:46:19;;;;;;;5.70;2.22;;;;;;;;;;5017432;28;20202;-81
2022/06/04 13:48:54;;;;;;;2.28;2.17;;;;;;;;;;5017597;28;20682;-81
2022/06/04 13:51:24;;;;;;;2.05;1.95;;;;;;;;;;5017083;28;20233;-82
2022/06/04 13:53:54;;;;;;;2.20;2.10;;;;;;;;;;5016028;28;20210;-82
2022/06/04 13:56:28;;;;;;;1.60;1.55;;;;;;;;;;5017494;28;20253;-82
2022/06/04 13:58:58;;;;;;;1.60;1.50;;;;;;;;;;5017633;28;20306;-81
2022/06/04 14:01:32;;;;;;;2.33;2.22;;;;;;;;;;5016815;28;20577;-82
2022/06/04 14:06:42;;;;;;;2.05;1.88;;;;;;;;;;5016187;28;20218;-81
2022/06/04 14:09:10;;;;;;;2.80;2.28;;;;;;;;;;5015966;28;20285;-81
2022/06/04 14:11:48;;;;;;;2.00;1.90;;;;;;;;;;5015504;28;20314;-81
2022/06/04 14:14:34;;;;;;;2.22;2.13;;;;;;;;;;5015969;28;20297;-81
2022/06/04 14:17:21;;;;;;;2.25;2.15;;;;;;;;;;5016348;28;20314;-81
2022/06/04 14:20:10;;;;;;;1.95;1.85;;;;;;;;;;5017064;28;20641;-81
2022/06/04 14:22:46;;;;;;;3.63;1.83;;;;;;;;;;5015614;28;20289;-82
2022/06/04 14:25:22;;;;;;;1.90;1.80;;;;;;;;;;5016734;28;20354;-81
2022/06/04 14:28:02;;;;;;;1.90;1.80;;;;;;;;;;5015982;28;20219;-81
2022/06/04 14:30:37;;;;;;;1.83;1.73;;;;;;;;;;5015796;28;20313;-81
2022/06/04 14:33:05;;;;;;;2.22;2.03;;;;;;;;;;5015119;28;20659;-81
2022/06/04 14:35:36;;;;;;;2.40;2.30;;;;;;;;;;5015683;28;20258;-81
2022/06/04 14:38:07;;;;;;;1.80;1.70;;;;;;;;;;5016098;28;20227;-82
2022/06/04 14:40:43;;;;;;;1.48;1.48;;;;;;;;;;5014930;28;20199;-81
2022/06/04 14:43:38;;;;;;;1.30;1.30;;;;;;;;;;5015658;28;20286;-81
2022/06/04 14:46:20;;;;;;;1.60;1.50;;;;;;;;;;5006840;28;20657;-81
2022/06/04 14:49:31;;;;;;;1.67;1.58;;;;;;;;;;5015916;28;20621;-82
2022/06/04 14:52:33;;;;;;;1.73;1.63;;;;;;;;;;5014014;28;20223;-81
2022/06/04 14:55:07;;;;;;;1.80;1.70;;;;;;;;;;5015664;28;20758;-81
2022/06/04 14:58:16;;;;;;;1.80;1.70;;;;;;;;;;5015257;28;20774;-81
2022/06/04 15:01:11;;;;;;;2.13;2.00;;;;;;;;;;4976025;28;20206;-81
2022/06/04 15:04:27;;;;;;;1.73;1.63;;;;;;;;;;4993858;28;20290;-82
2022/06/04 15:07:13;;;;;;;1.58;1.48;;;;;;;;;;4995475;28;20716;-80
2022/06/04 15:10:00;;;;;;;2.05;1.90;;;;;;;;;;4995234;28;20199;-81
2022/06/04 15:12:47;;;;;;;2.00;1.90;;;;;;;;;;4995244;28;20290;-82
2022/06/04 15:15:28;;;;;;;2.10;2.00;;;;;;;;;;4995474;28;20218;-82
2022/06/04 15:18:20;;;;;;;1.80;1.70;;;;;;;;;;4994360;28;20234;-81
2022/06/04 15:21:00;;;;;;;1.85;1.75;;;;;;;;;;4994644;28;20242;-82
2022/06/04 15:23:53;;;;;;;1.98;1.88;;;;;;;;;;4994536;28;20208;-82
2022/06/04 15:26:30;;;;;;;1.98;1.38;;;;;;;;;;4995230;28;20199;-81
2022/06/04 15:34:47;;;;;;;1.50;1.40;;;;;;;;;;5014557;28;20625;-82
2022/06/04 15:37:27;;;;;;;1.63;1.52;;;;;;;;;;5014370;28;20226;-81
2022/06/04 15:40:06;;;;;;;1.88;1.77;;;;;;;;;;5014586;28;20234;-81
2022/06/04 15:43:00;;;;;;;2.38;2.22;;;;;;;;;;5014753;28;20207;-82
2022/06/04 15:45:33;;;;;;;1.85;1.75;;;;;;;;;;5005137;28;20210;-81
2022/06/04 15:48:10;;;;;;;1.27;1.27;;;;;;;;;;5013786;28;20238;-81
2022/06/04 15:56:49;;;;;;;1.65;1.55;;;;;;;;;;5014670;28;20222;-82
2022/06/04 15:59:19;;;;;;;1.70;1.60;;;;;;;;;;5014384;28;20290;-82